Time;durP1;ratioP1;P1;durP2;ratioP2;P2;SDS_P1;SDS_P2;PMS_P1;PMS_P2;Temp;Humidity;BMP_temperature;BMP_pressure;BME280_temperature;BME280_humidity;BME280_pressure;Samples;Min_cycle;Max_cycle;Signal;HPM_P1;HPM_P2
2023/10/25 00:01:00;;;;;;;15.75;4.30;;;;;;;15.62;88.26;92722.63;5067253;28;20040;-74
2023/10/25 00:03:27;;;;;;;13.65;4.25;;;;;;;15.65;88.60;92706.59;5068598;28;20101;-74
2023/10/25 00:05:54;;;;;;;13.68;4.30;;;;;;;15.62;87.93;92691.56;5064588;28;20045;-75
2023/10/25 00:08:21;;;;;;;11.07;3.20;;;;;;;15.59;87.82;92677.31;5067440;28;20094;-75
2023/10/25 00:10:49;;;;;;;10.60;4.25;;;;;;;15.64;87.52;92679.13;5068926;28;20044;-74
2023/10/25 00:13:15;;;;;;;9.75;3.65;;;;;;;15.64;86.90;92676.56;5068671;28;20049;-73
2023/10/25 00:15:43;;;;;;;11.38;3.03;;;;;;;15.74;86.94;92691.34;5065956;28;20545;-74
2023/10/25 00:18:09;;;;;;;8.02;3.17;;;;;;;15.76;86.72;92691.88;5065823;28;20045;-74
2023/10/25 00:20:36;;;;;;;9.63;3.40;;;;;;;15.80;86.54;92685.16;5069084;28;20079;-74
2023/10/25 00:23:03;;;;;;;12.23;3.38;;;;;;;15.84;86.08;92665.47;5069097;28;20090;-75
2023/10/25 00:25:30;;;;;;;12.45;4.22;;;;;;;15.82;85.55;92661.56;5060666;28;20053;-75
2023/10/25 00:27:58;;;;;;;14.18;2.90;;;;;;;15.99;84.92;92671.75;5062190;28;20102;-75
2023/10/25 00:30:25;;;;;;;12.82;4.38;;;;;;;16.04;84.17;92669.19;5068095;28;20044;-74
2023/10/25 00:32:51;;;;;;;9.15;3.38;;;;;;;16.12;83.61;92666.06;5067757;28;20055;-74
2023/10/25 00:35:18;;;;;;;11.55;3.47;;;;;;;16.17;84.24;92660.91;5067685;28;20114;-74
2023/10/25 00:37:45;;;;;;;11.70;3.67;;;;;;;16.19;83.77;92654.69;5063273;28;20105;-74
2023/10/25 00:40:12;;;;;;;10.75;3.20;;;;;;;16.18;83.79;92659.09;5064159;28;20115;-74
2023/10/25 00:42:39;;;;;;;12.43;4.45;;;;;;;16.22;84.12;92656.75;5067352;28;20122;-74
2023/10/25 00:45:08;;;;;;;10.13;3.90;;;;;;;16.22;84.41;92665.31;5064751;28;20048;-74
2023/10/25 00:47:35;;;;;;;14.73;4.25;;;;;;;16.22;84.54;92682.66;5065794;28;20064;-74
2023/10/25 00:50:02;;;;;;;11.25;4.32;;;;;;;16.24;84.55;92685.81;5062279;28;20458;-74
2023/10/25 00:52:29;;;;;;;14.75;3.47;;;;;;;16.21;84.75;92683.72;5064132;28;20056;-74
2023/10/25 00:54:57;;;;;;;12.38;4.20;;;;;;;16.22;84.07;92674.91;5062429;28;20111;-74
2023/10/25 00:57:24;;;;;;;9.73;3.92;;;;;;;16.20;83.88;92659.59;5068136;28;20125;-74
2023/10/25 00:59:52;;;;;;;12.15;3.10;;;;;;;16.14;83.76;92656.25;5068288;28;20048;-74
2023/10/25 01:02:20;;;;;;;9.25;4.10;;;;;;;16.15;83.70;92642.25;5066085;28;20044;-74
2023/10/25 01:04:47;;;;;;;14.43;3.50;;;;;;;16.16;83.46;92637.84;5064650;28;20481;-74
2023/10/25 01:07:14;;;;;;;10.15;3.03;;;;;;;16.23;83.21;92646.16;5065111;28;20052;-74
2023/10/25 01:09:41;;;;;;;17.00;3.85;;;;;;;16.22;83.19;92639.41;5067527;28;20049;-74
2023/10/25 01:12:08;;;;;;;18.38;4.22;;;;;;;16.22;83.35;92636.81;5064095;28;20451;-74
2023/10/25 01:14:35;;;;;;;10.00;2.85;;;;;;;16.21;82.19;92637.88;5066434;28;20094;-75
2023/10/25 01:17:02;;;;;;;11.75;3.25;;;;;;;16.21;82.05;92637.88;5066496;28;20090;-74
2023/10/25 01:19:30;;;;;;;12.00;4.05;;;;;;;16.21;81.94;92635.28;5065019;28;20044;-74
2023/10/25 01:21:56;;;;;;;11.52;3.90;;;;;;;16.22;82.01;92639.41;5064500;28;20048;-74
2023/10/25 01:24:25;;;;;;;11.52;2.72;;;;;;;16.27;81.83;92631.63;5062520;28;20493;-74
2023/10/25 01:26:51;;;;;;;11.20;3.80;;;;;;;16.30;81.71;92627.75;5065912;28;20447;-75
2023/10/25 01:29:18;;;;;;;11.52;2.90;;;;;;;16.37;81.53;92624.88;5066077;28;20090;-75
2023/10/25 01:31:45;;;;;;;12.35;3.50;;;;;;;16.42;81.04;92641.22;5066184;28;20439;-74
2023/10/25 01:34:11;;;;;;;16.63;4.25;;;;;;;16.45;81.12;92639.94;5064649;28;20133;-75
2023/10/25 01:36:38;;;;;;;10.55;3.67;;;;;;;16.32;81.36;92622.28;5065790;28;20037;-74
2023/10/25 01:39:05;;;;;;;13.75;3.80;;;;;;;16.47;81.62;92648.22;5063169;28;20106;-74
2023/10/25 01:41:33;;;;;;;15.27;3.38;;;;;;;16.48;81.79;92656.78;5065676;28;20045;-74
2023/10/25 01:44:00;;;;;;;9.00;3.90;;;;;;;16.51;81.64;92667.41;5065614;28;20037;-75
2023/10/25 01:46:27;;;;;;;13.35;3.78;;;;;;;16.50;81.77;92675.44;5065893;28;20041;-74
2023/10/25 01:48:53;;;;;;;13.45;3.67;;;;;;;16.48;81.94;92683.47;5064753;28;20048;-73
2023/10/25 01:51:20;;;;;;;13.27;3.83;;;;;;;16.54;82.05;92687.59;5065788;28;20074;-75
2023/10/25 01:53:47;;;;;;;9.35;3.22;;;;;;;16.56;81.65;92690.75;5063857;28;20508;-75
2023/10/25 01:56:13;;;;;;;11.50;3.22;;;;;;;16.53;81.74;92693.06;5066037;28;20048;-75
2023/10/25 01:58:41;;;;;;;16.17;4.32;;;;;;;16.49;81.91;92679.84;5065461;28;20044;-75
2023/10/25 02:01:08;;;;;;;11.10;3.53;;;;;;;16.48;81.58;92669.75;5062685;28;20037;-75
2023/10/25 02:03:35;;;;;;;10.30;3.72;;;;;;;16.48;81.79;92669.75;5063740;28;20045;-75
2023/10/25 02:06:11;;;;;;;12.70;3.80;;;;;;;16.50;81.64;92673.63;5066233;28;20040;-75
2023/10/25 02:08:38;;;;;;;12.23;3.83;;;;;;;16.49;81.48;92673.88;5065812;28;20047;-75
2023/10/25 02:11:05;;;;;;;13.57;3.83;;;;;;;16.46;81.51;92670.00;5062152;28;20093;-74
2023/10/25 02:13:32;;;;;;;11.85;3.80;;;;;;;16.41;82.13;92672.59;5065475;28;20105;-76
2023/10/25 02:16:00;;;;;;;13.00;3.42;;;;;;;16.32;82.42;92674.91;5061289;28;20072;-76
2023/10/25 02:18:26;;;;;;;13.05;3.88;;;;;;;16.33;82.51;92678.28;5061219;28;20049;-75
2023/10/25 02:20:53;;;;;;;8.13;2.80;;;;;;;16.26;82.79;92658.56;5062461;28;20493;-75
2023/10/25 02:23:20;;;;;;;11.20;3.35;;;;;;;16.22;83.23;92646.41;5065826;28;20045;-75
2023/10/25 02:25:47;;;;;;;10.10;3.35;;;;;;;16.19;83.47;92639.91;5061552;28;20048;-75
2023/10/25 02:28:13;;;;;;;11.98;3.38;;;;;;;16.13;83.24;92609.84;5063867;28;20040;-76
2023/10/25 02:30:40;;;;;;;11.95;3.75;;;;;;;16.21;83.38;92622.31;5065170;28;20496;-75
2023/10/25 02:33:08;;;;;;;10.25;4.28;;;;;;;16.24;83.35;92636.56;5064805;28;20109;-74
2023/10/25 02:35:35;;;;;;;10.75;3.63;;;;;;;16.24;82.90;92621.78;5062918;28;20048;-75
2023/10/25 02:38:01;;;;;;;8.82;3.42;;;;;;;16.27;82.53;92599.75;5063673;28;20529;-75
2023/10/25 02:40:28;;;;;;;9.45;2.67;;;;;;;16.27;82.23;92586.78;5065239;28;20040;-75
2023/10/25 02:42:55;;;;;;;11.90;4.18;;;;;;;16.30;82.06;92592.22;5064848;28;20044;-75
2023/10/25 02:45:22;;;;;;;11.35;4.15;;;;;;;16.30;80.89;92583.69;5064289;28;20048;-76
2023/10/25 02:47:48;;;;;;;13.27;3.85;;;;;;;16.30;80.87;92576.69;5064540;28;20045;-75
2023/10/25 02:50:16;;;;;;;9.77;3.25;;;;;;;16.30;80.69;92562.97;5063646;28;20044;-75
2023/10/25 02:52:46;;;;;;;9.30;3.17;;;;;;;16.35;80.51;92570.75;5064945;28;20546;-75
2023/10/25 02:55:13;;;;;;;8.40;3.13;;;;;;;16.35;80.03;92568.16;5064373;28;20040;-75
2023/10/25 02:57:40;;;;;;;7.97;3.08;;;;;;;16.42;79.30;92557.50;5069286;28;20094;-75
2023/10/25 03:00:10;;;;;;;9.73;2.95;;;;;;;16.43;78.77;92559.03;5069161;28;20040;-75
2023/10/25 03:02:36;;;;;;;7.72;2.53;;;;;;;16.53;78.62;92550.50;5066637;28;20051;-75
2023/10/25 03:05:03;;;;;;;10.80;3.25;;;;;;;16.62;78.17;92556.66;5069183;28;20559;-75
2023/10/25 03:07:31;;;;;;;11.30;3.22;;;;;;;16.62;78.07;92555.91;5068347;28;20071;-75
2023/10/25 03:09:58;;;;;;;11.02;2.67;;;;;;;16.72;77.67;92545.53;5065654;28;20055;-75
2023/10/25 03:12:25;;;;;;;12.60;2.75;;;;;;;16.76;77.72;92548.34;5068857;28;20454;-75
2023/10/25 03:14:51;;;;;;;8.88;2.67;;;;;;;16.80;77.51;92546.78;5068831;28;20110;-75
2023/10/25 03:17:18;;;;;;;12.70;3.70;;;;;;;16.79;77.48;92550.41;5069155;28;20048;-75
2023/10/25 03:19:45;;;;;;;7.97;2.55;;;;;;;16.78;77.35;92530.69;5068560;28;20082;-75
2023/10/25 03:22:12;;;;;;;9.45;2.85;;;;;;;16.77;77.54;92537.72;5067879;28;20784;-75
2023/10/25 03:24:40;;;;;;;9.70;3.65;;;;;;;16.78;77.67;92533.28;5068789;28;20044;-74
2023/10/25 03:27:07;;;;;;;8.00;2.97;;;;;;;16.75;77.45;92542.38;5064230;28;20045;-76
2023/10/25 03:29:36;;;;;;;10.10;2.53;;;;;;;16.79;77.25;92534.84;5066978;28;20048;-75
2023/10/25 03:32:03;;;;;;;7.20;2.72;;;;;;;16.73;77.31;92526.31;5068481;28;20040;-76
2023/10/25 03:34:29;;;;;;;12.65;3.40;;;;;;;16.75;77.39;92526.06;5065159;28;20463;-75
2023/10/25 03:36:56;;;;;;;9.32;2.80;;;;;;;16.75;77.17;92524.22;5068329;28;20040;-75
2023/10/25 03:39:23;;;;;;;10.82;3.20;;;;;;;16.75;77.33;92536.44;5068763;28;20048;-75
2023/10/25 03:41:51;;;;;;;8.68;3.00;;;;;;;16.77;77.29;92523.97;5066256;28;20056;-76
2023/10/25 03:44:18;;;;;;;11.30;2.88;;;;;;;16.77;77.03;92531.75;5069038;28;20385;-76
2023/10/25 03:46:45;;;;;;;11.00;2.60;;;;;;;16.72;77.34;92534.34;5065203;28;20094;-76
2023/10/25 03:49:12;;;;;;;12.90;3.58;;;;;;;16.69;77.68;92540.84;5066142;28;20559;-75
2023/10/25 03:51:41;;;;;;;13.45;2.92;;;;;;;16.70;77.60;92537.22;5067733;28;20045;-76
2023/10/25 03:54:08;;;;;;;6.93;2.60;;;;;;;16.46;77.42;92498.91;5066265;28;20064;-77
2023/10/25 03:56:35;;;;;;;9.88;3.03;;;;;;;16.72;77.19;92526.56;5066891;28;20040;-77
2023/10/25 03:59:03;;;;;;;14.65;3.95;;;;;;;16.73;77.04;92528.13;5068322;28;20534;-77
2023/10/25 04:01:30;;;;;;;9.80;2.38;;;;;;;16.78;76.61;92539.28;5065673;28;20055;-76
2023/10/25 04:03:56;;;;;;;6.30;2.35;;;;;;;16.79;76.63;92532.25;5064619;28;20041;-76
2023/10/25 04:06:23;;;;;;;12.80;3.85;;;;;;;16.75;76.77;92533.84;5066173;28;20090;-76
2023/10/25 04:08:50;;;;;;;9.30;3.35;;;;;;;16.82;76.32;92532.50;5066158;28;20049;-75
2023/10/25 04:11:17;;;;;;;8.27;2.42;;;;;;;16.82;75.98;92537.69;5065849;28;20134;-75
2023/10/25 04:13:44;;;;;;;12.60;2.33;;;;;;;16.85;75.81;92530.44;5067636;28;20044;-75
2023/10/25 04:16:13;;;;;;;11.77;3.55;;;;;;;16.77;75.21;92506.59;5068057;28;20576;-75
2023/10/25 04:18:39;;;;;;;8.73;2.85;;;;;;;16.88;75.17;92527.28;5067876;28;20114;-76
2023/10/25 04:21:10;;;;;;;7.82;2.20;;;;;;;16.95;75.17;92533.00;5064497;28;20060;-76
2023/10/25 04:23:37;;;;;;;10.07;1.88;;;;;;;17.01;74.45;92539.69;5064561;28;20086;-76
2023/10/25 04:26:05;;;;;;;12.75;2.35;;;;;;;17.05;73.95;92534.78;5065129;28;20102;-75
2023/10/25 04:28:32;;;;;;;10.93;3.47;;;;;;;17.07;73.84;92530.88;5068137;28;20139;-75
2023/10/25 04:30:58;;;;;;;14.65;3.22;;;;;;;17.10;73.71;92529.56;5065361;28;20094;-74
2023/10/25 04:33:27;;;;;;;9.35;3.20;;;;;;;17.07;73.72;92520.50;5065460;28;20094;-75
2023/10/25 04:35:53;;;;;;;15.85;3.33;;;;;;;17.11;73.77;92532.97;5064774;28;20830;-75
2023/10/25 04:38:20;;;;;;;13.38;3.58;;;;;;;17.06;73.66;92537.13;5066818;28;20914;-75
2023/10/25 04:40:47;;;;;;;13.18;3.22;;;;;;;17.07;73.69;92538.66;5066716;28;20557;-75
2023/10/25 04:43:14;;;;;;;16.10;3.92;;;;;;;17.16;73.34;92541.47;5066106;28;20044;-78
2023/10/25 04:45:40;;;;;;;16.85;3.15;;;;;;;17.16;73.42;92530.31;5067819;28;20094;-74
2023/10/25 04:48:07;;;;;;;15.90;3.13;;;;;;;17.17;72.83;92530.06;5064455;28;20041;-74
2023/10/25 04:50:38;;;;;;;9.52;2.53;;;;;;;17.22;72.92;92508.50;5066954;28;20048;-74
2023/10/25 04:53:06;;;;;;;8.82;3.72;;;;;;;17.19;72.94;92502.03;5066796;28;20527;-75
2023/10/25 04:55:34;;;;;;;10.57;2.65;;;;;;;17.18;73.04;92510.06;5064911;28;20049;-74
2023/10/25 04:58:01;;;;;;;12.57;3.30;;;;;;;17.17;73.37;92503.34;5063343;28;20136;-75
2023/10/25 05:00:29;;;;;;;17.35;3.58;;;;;;;17.10;73.44;92508.81;5065881;28;20052;-74
2023/10/25 05:02:55;;;;;;;12.52;3.72;;;;;;;17.08;73.58;92503.88;5066802;28;20094;-75
2023/10/25 05:05:22;;;;;;;9.30;2.95;;;;;;;17.04;73.65;92508.06;5065279;28;20044;-74
2023/10/25 05:07:52;;;;;;;11.20;3.88;;;;;;;17.02;73.77;92517.91;5063821;28;20044;-74
2023/10/25 05:10:19;;;;;;;13.55;4.13;;;;;;;17.00;73.72;92514.03;5065831;28;20053;-74
2023/10/25 05:12:48;;;;;;;16.67;3.72;;;;;;;16.89;73.68;92502.94;5063261;28;20044;-74
2023/10/25 05:15:17;;;;;;;12.85;3.83;;;;;;;16.93;73.85;92502.13;5065757;28;20041;-74
2023/10/25 05:17:45;;;;;;;18.80;5.25;;;;;;;16.91;73.85;92500.81;5066693;28;20448;-75
2023/10/25 05:20:13;;;;;;;20.60;5.97;;;;;;;16.85;74.07;92505.25;5066239;28;20041;-76
2023/10/25 05:22:42;;;;;;;16.40;4.03;;;;;;;16.85;73.56;92505.25;5063587;28;20044;-74
2023/10/25 05:25:11;;;;;;;21.83;4.05;;;;;;;16.68;73.85;92487.44;5059219;28;20052;-75
2023/10/25 05:27:38;;;;;;;14.95;3.80;;;;;;;16.81;73.28;92493.88;5063493;28;20078;-74
2023/10/25 05:30:09;;;;;;;12.07;3.25;;;;;;;16.65;73.48;92473.19;5065505;28;20496;-74
2023/10/25 05:32:37;;;;;;;18.05;3.70;;;;;;;16.85;73.44;92504.50;5063930;28;20159;-75
2023/10/25 05:35:06;;;;;;;15.63;3.80;;;;;;;16.83;73.45;92505.53;5063881;28;20044;-74
2023/10/25 05:37:34;;;;;;;10.45;3.33;;;;;;;16.72;73.53;92491.06;5065847;28;20048;-75
2023/10/25 05:40:01;;;;;;;13.93;3.72;;;;;;;16.81;73.06;92493.88;5066722;28;20048;-75
2023/10/25 05:42:30;;;;;;;18.13;4.18;;;;;;;16.79;73.44;92493.34;5064750;28;20048;-75
2023/10/25 05:44:56;;;;;;;15.20;3.83;;;;;;;16.89;73.04;92501.09;5065414;28;20085;-75
2023/10/25 05:47:24;;;;;;;15.45;3.63;;;;;;;16.83;73.08;92489.97;5074417;28;20040;-74
2023/10/25 05:49:51;;;;;;;14.27;3.15;;;;;;;16.86;72.95;92493.06;5072926;28;20522;-74
2023/10/25 05:52:18;;;;;;;14.38;3.95;;;;;;;16.99;72.91;92509.88;5069620;28;20396;-75
2023/10/25 05:54:46;;;;;;;13.35;4.03;;;;;;;16.87;73.10;92497.22;5070653;28;20890;-75
2023/10/25 05:57:13;;;;;;;12.23;3.00;;;;;;;16.78;72.78;92479.63;5073169;28;20044;-75
2023/10/25 05:59:42;;;;;;;14.25;3.70;;;;;;;17.07;72.73;92525.69;5072349;28;20074;-75
2023/10/25 06:02:11;;;;;;;20.52;4.10;;;;;;;17.13;72.57;92529.03;5067914;28;20040;-74
2023/10/25 06:04:39;;;;;;;14.73;3.75;;;;;;;17.16;72.24;92530.31;5067422;28;20041;-75
2023/10/25 06:07:07;;;;;;;13.50;3.90;;;;;;;17.17;72.25;92521.50;5068734;28;20489;-75
2023/10/25 06:09:35;;;;;;;20.05;3.75;;;;;;;17.27;72.00;92524.03;5070709;28;20044;-74
2023/10/25 06:12:02;;;;;;;21.00;4.00;;;;;;;17.37;71.74;92546.56;5072205;28;20098;-74
2023/10/25 06:14:30;;;;;;;18.13;3.33;;;;;;;17.43;71.51;92549.91;5074906;28;20050;-74
2023/10/25 06:16:59;;;;;;;18.92;4.20;;;;;;;17.49;71.42;92554.03;5065478;28;20094;-75
2023/10/25 06:19:27;;;;;;;21.50;3.35;;;;;;;17.45;71.06;92527.81;5073934;28;20075;-75
2023/10/25 06:21:54;;;;;;;15.10;3.72;;;;;;;17.63;71.10;92536.03;5073019;28;20040;-75
2023/10/25 06:24:21;;;;;;;20.00;4.30;;;;;;;17.69;70.84;92534.19;5065171;28;20714;-74
2023/10/25 06:26:48;;;;;;;13.07;2.95;;;;;;;17.76;70.45;92519.06;5067889;28;20098;-74
2023/10/25 06:29:14;;;;;;;13.57;3.80;;;;;;;17.77;70.23;92513.59;5070481;28;20090;-74
2023/10/25 06:31:41;;;;;;;15.50;4.10;;;;;;;17.93;69.60;92528.28;5073094;28;20381;-75
2023/10/25 06:34:09;;;;;;;23.55;5.45;;;;;;;17.88;69.64;92524.69;5069501;28;20481;-75
2023/10/25 06:36:38;;;;;;;18.58;4.53;;;;;;;18.06;69.41;92545.06;5070589;28;21382;-75
2023/10/25 06:39:07;;;;;;;20.90;5.53;;;;;;;18.12;68.78;92542.19;5066142;28;20053;-75
2023/10/25 06:41:35;;;;;;;18.50;4.47;;;;;;;18.24;67.89;92544.44;5072545;28;20048;-74
2023/10/25 06:44:03;;;;;;;21.33;3.78;;;;;;;18.34;67.45;92538.38;5084853;28;20105;-74
2023/10/25 06:46:30;;;;;;;18.33;3.53;;;;;;;18.30;67.43;92532.16;5068878;28;20048;-74
2023/10/25 06:48:58;;;;;;;13.20;3.22;;;;;;;18.41;67.06;92538.03;5065586;28;20493;-75
2023/10/25 06:51:27;;;;;;;14.95;3.65;;;;;;;18.48;66.87;92537.72;5072680;28;20055;-75
2023/10/25 06:53:54;;;;;;;17.17;3.85;;;;;;;18.49;66.42;92537.44;5085336;28;20071;-75
2023/10/25 06:56:22;;;;;;;14.77;3.75;;;;;;;18.56;66.78;92539.72;5085280;28;20061;-75
2023/10/25 06:58:50;;;;;;;15.38;3.63;;;;;;;18.66;66.07;92536.25;5073754;28;20448;-75
2023/10/25 07:01:18;;;;;;;18.30;3.60;;;;;;;18.71;65.87;92541.41;5072659;28;20566;-75
2023/10/25 07:03:47;;;;;;;16.42;3.70;;;;;;;18.57;65.63;92525.69;5067141;28;20128;-75
2023/10/25 07:06:16;;;;;;;16.95;3.78;;;;;;;18.74;65.67;92547.88;5066428;28;20045;-75
2023/10/25 07:08:45;;;;;;;19.88;3.58;;;;;;;18.81;65.50;92554.31;5070624;28;20047;-75
2023/10/25 07:11:12;;;;;;;14.18;3.88;;;;;;;18.83;65.13;92551.41;5065780;28;21193;-75
2023/10/25 07:13:39;;;;;;;19.95;4.80;;;;;;;18.87;65.68;92547.19;5073508;28;20182;-75
2023/10/25 07:16:07;;;;;;;20.30;4.57;;;;;;;18.88;65.14;92542.78;5066586;28;20513;-75
2023/10/25 07:18:34;;;;;;;17.98;3.92;;;;;;;18.98;65.14;92545.25;5066611;28;20048;-74
2023/10/25 07:21:01;;;;;;;20.67;3.90;;;;;;;18.99;64.73;92543.44;5065178;28;20048;-74
2023/10/25 07:23:28;;;;;;;20.77;4.18;;;;;;;18.97;64.81;92554.09;5069726;28;20040;-75
2023/10/25 07:25:56;;;;;;;18.25;4.28;;;;;;;18.93;64.69;92546.09;5085142;28;20121;-75
2023/10/25 07:28:22;;;;;;;19.70;3.95;;;;;;;19.01;64.50;92543.91;5084189;28;20079;-74
2023/10/25 07:30:50;;;;;;;23.58;5.22;;;;;;;18.91;64.52;92534.41;5073144;28;20049;-75
2023/10/25 07:33:17;;;;;;;15.85;4.03;;;;;;;19.05;64.23;92550.94;5072935;28;20058;-75
2023/10/25 07:35:44;;;;;;;17.25;4.63;;;;;;;19.07;63.87;92548.06;5080445;28;20496;-75
2023/10/25 07:38:11;;;;;;;18.05;3.58;;;;;;;19.11;63.75;92549.03;5084419;28;20059;-74
2023/10/25 07:40:39;;;;;;;19.80;4.90;;;;;;;19.11;63.90;92549.03;5070180;28;20048;-75
2023/10/25 07:43:08;;;;;;;13.82;3.92;;;;;;;19.20;64.16;92560.38;5075298;28;20419;-74
2023/10/25 07:45:34;;;;;;;18.55;4.90;;;;;;;19.27;63.42;92549.63;5071066;28;20048;-74
2023/10/25 07:48:01;;;;;;;20.20;3.92;;;;;;;19.34;63.34;92549.28;5077324;28;20098;-74
2023/10/25 07:50:28;;;;;;;15.20;4.20;;;;;;;19.34;63.14;92554.47;5077600;28;20044;-74
2023/10/25 07:52:55;;;;;;;18.08;4.22;;;;;;;19.35;63.10;92548.25;5087447;28;20462;-74
2023/10/25 07:55:21;;;;;;;15.90;3.70;;;;;;;19.55;62.66;92567.25;5080495;28;20098;-73
2023/10/25 07:57:48;;;;;;;14.93;2.90;;;;;;;19.59;62.36;92561.19;5073378;28;20041;-74
2023/10/25 08:00:17;;;;;;;20.08;6.68;;;;;;;19.67;62.29;92559.00;5070102;28;20474;-74
2023/10/25 08:02:43;;;;;;;21.35;4.22;;;;;;;19.72;62.23;92558.94;5082767;28;20489;-74
2023/10/25 08:05:10;;;;;;;21.65;4.22;;;;;;;19.79;61.25;92564.56;5068381;28;20109;-74
2023/10/25 08:07:37;;;;;;;19.65;3.95;;;;;;;19.81;61.44;92572.09;5071116;28;20052;-75
2023/10/25 08:10:06;;;;;;;16.73;4.07;;;;;;;19.92;61.35;92575.31;5069478;28;20397;-74
2023/10/25 08:12:35;;;;;;;15.73;3.47;;;;;;;19.98;61.24;92575.00;5069368;28;20763;-74
2023/10/25 08:15:03;;;;;;;18.40;4.03;;;;;;;20.05;60.66;92576.47;5074592;28;20056;-74
2023/10/25 08:17:31;;;;;;;16.52;3.75;;;;;;;20.12;60.96;92574.28;5069332;28;20121;-74
2023/10/25 08:19:58;;;;;;;15.35;4.10;;;;;;;20.20;60.60;92572.84;5069827;28;20098;-74
2023/10/25 08:22:24;;;;;;;14.50;4.20;;;;;;;20.25;60.41;92570.16;5068645;28;20138;-74
2023/10/25 08:24:51;;;;;;;23.13;4.63;;;;;;;20.05;60.05;92532.16;5070604;28;20134;-75
2023/10/25 08:27:19;;;;;;;20.10;3.95;;;;;;;20.34;60.09;92573.66;5087341;28;20060;-74
2023/10/25 08:29:46;;;;;;;15.93;3.22;;;;;;;20.28;60.26;92565.16;5074446;28;20086;-75
2023/10/25 08:32:12;;;;;;;13.55;3.35;;;;;;;20.42;59.87;92574.84;5074703;28;20565;-75
2023/10/25 08:34:46;;;;;;;13.77;3.70;;;;;;;20.57;59.67;92586.84;5069634;28;20467;-74
2023/10/25 08:37:13;;;;;;;12.73;3.30;;;;;;;20.58;59.67;92582.41;5086293;28;20098;-74
2023/10/25 08:39:40;;;;;;;15.52;4.30;;;;;;;20.58;59.42;92577.97;5063920;28;20044;-74
2023/10/25 08:42:11;;;;;;;20.05;3.65;;;;;;;20.57;58.67;92571.19;5075315;28;20117;-74
2023/10/25 08:44:40;;;;;;;12.63;2.92;;;;;;;20.64;58.68;92578.66;5070480;28;20131;-74
2023/10/25 08:47:08;;;;;;;14.23;3.47;;;;;;;20.64;58.46;92570.84;5073815;28;20053;-74
2023/10/25 08:49:36;;;;;;;29.60;3.97;;;;;;;20.69;58.57;92576.72;5068685;28;20049;-74
2023/10/25 08:52:04;;;;;;;14.82;3.25;;;;;;;20.85;58.60;92586.09;5068539;28;20098;-74
2023/10/25 08:54:31;;;;;;;24.40;5.25;;;;;;;20.95;58.09;92588.56;5063297;28;20135;-74
2023/10/25 08:56:58;;;;;;;18.33;4.30;;;;;;;20.96;58.14;92583.06;5075307;28;20044;-74
2023/10/25 08:59:25;;;;;;;20.27;4.20;;;;;;;21.11;57.85;92593.50;5079481;28;20072;-75
2023/10/25 09:01:52;;;;;;;23.85;4.38;;;;;;;21.17;58.15;92590.50;5071693;28;20447;-75
2023/10/25 09:04:18;;;;;;;19.27;5.00;;;;;;;21.29;57.77;92586.63;5066658;28;20409;-75
2023/10/25 09:06:45;;;;;;;25.58;4.25;;;;;;;21.36;58.10;92597.47;5075533;28;20056;-75
2023/10/25 09:09:13;;;;;;;19.23;4.22;;;;;;;21.43;57.16;92591.84;5065795;28;20538;-74
2023/10/25 09:11:41;;;;;;;22.60;3.97;;;;;;;21.14;56.30;92557.13;5064898;28;20114;-74
2023/10/25 09:14:10;;;;;;;14.02;3.05;;;;;;;21.36;55.93;92600.84;5080000;28;20048;-74
2023/10/25 09:16:39;;;;;;;22.52;3.53;;;;;;;21.41;56.10;92607.03;5079269;28;20140;-74
2023/10/25 09:19:06;;;;;;;14.70;4.30;;;;;;;21.34;56.55;92605.56;5076587;28;20048;-74
2023/10/25 09:21:33;;;;;;;21.75;4.55;;;;;;;21.17;56.33;92592.34;5071756;28;20102;-75
2023/10/25 09:24:02;;;;;;;18.88;3.67;;;;;;;21.25;56.48;92609.16;5072672;28;20052;-74
2023/10/25 09:26:36;;;;;;;19.60;4.40;;;;;;;21.18;56.02;92606.94;5067888;28;20056;-74
2023/10/25 09:29:03;;;;;;;21.05;4.55;;;;;;;21.10;56.67;92611.00;5065639;28;20059;-74
2023/10/25 09:31:31;;;;;;;22.52;4.65;;;;;;;21.15;56.74;92617.97;5074000;28;20412;-75
2023/10/25 09:33:59;;;;;;;20.00;4.57;;;;;;;21.02;56.82;92602.00;5068265;28;20482;-74
2023/10/25 09:36:26;;;;;;;19.35;3.90;;;;;;;21.03;57.36;92603.56;5069248;28;20056;-74
2023/10/25 09:38:54;;;;;;;17.27;3.15;;;;;;;21.11;57.70;92596.91;5069446;28;20054;-74
2023/10/25 09:41:21;;;;;;;15.13;3.95;;;;;;;21.17;57.60;92590.50;5069430;28;20094;-74
2023/10/25 09:43:51;;;;;;;22.17;3.97;;;;;;;21.22;56.99;92587.03;5062026;28;20053;-75
2023/10/25 09:46:19;;;;;;;25.27;5.05;;;;;;;21.36;57.20;92600.84;5082564;28;20501;-74
2023/10/25 09:48:55;;;;;;;22.10;4.82;;;;;;;21.38;57.14;92592.69;5073552;28;20052;-74
2023/10/25 09:51:34;;;;;;;13.57;3.70;;;;;;;21.34;57.61;92579.47;5066040;28;20083;-75
2023/10/25 09:54:10;;;;;;;15.48;4.97;;;;;;;21.34;57.10;92581.31;5067234;28;20467;-74
2023/10/25 09:56:36;;;;;;;;;;;;;;;21.46;57.08;92580.78;5069174;28;20110;-75
2023/10/25 09:59:05;;;;;;;23.35;5.75;;;;;;;21.38;57.26;92579.63;5083558;28;20318;-74
2023/10/25 10:01:32;;;;;;;23.42;4.45;;;;;;;21.27;57.34;92554.78;5069115;28;20045;-75
2023/10/25 10:04:11;;;;;;;18.75;3.92;;;;;;;21.41;57.04;92575.66;5078577;28;20097;-74
2023/10/25 10:06:41;;;;;;;23.70;4.78;;;;;;;21.33;57.13;92559.63;5069532;28;20048;-75
2023/10/25 10:09:17;;;;;;;17.67;4.22;;;;;;;21.47;57.37;92569.28;5079968;28;20085;-74
2023/10/25 10:11:48;;;;;;;19.20;3.58;;;;;;;21.55;57.42;92567.81;5081917;28;20048;-75
2023/10/25 10:14:33;;;;;;;23.70;3.90;;;;;;;21.62;57.53;92563.72;5069771;28;20078;-75
2023/10/25 10:17:04;;;;;;;20.60;3.90;;;;;;;21.62;57.45;92558.50;5066477;28;20459;-75
2023/10/25 10:19:31;;;;;;;19.27;5.22;;;;;;;21.63;57.52;92556.66;5065237;28;20606;-75
2023/10/25 10:22:08;;;;;;;16.77;3.78;;;;;;;21.62;57.49;92542.81;5068606;28;20493;-75
2023/10/25 10:24:46;;;;;;;19.70;4.00;;;;;;;21.70;57.43;92546.59;5085457;28;20060;-75
2023/10/25 10:27:14;;;;;;;23.67;4.32;;;;;;;21.72;57.21;92552.31;5066851;28;20048;-75
2023/10/25 10:29:44;;;;;;;20.00;4.53;;;;;;;21.75;57.25;92543.09;5063783;28;20040;-75
2023/10/25 10:32:12;;;;;;;22.73;5.30;;;;;;;21.71;57.50;92550.00;5076450;28;20048;-75
2023/10/25 10:34:41;;;;;;;16.88;4.68;;;;;;;21.73;57.29;92543.41;5081826;28;20052;-75
2023/10/25 10:37:10;;;;;;;17.67;3.88;;;;;;;21.74;57.37;92538.94;5075144;28;20052;-75
2023/10/25 10:39:38;;;;;;;14.25;3.80;;;;;;;21.76;57.19;92532.34;5068288;28;20048;-76
2023/10/25 10:42:05;;;;;;;23.30;4.88;;;;;;;21.70;57.28;92524.91;5066562;28;20059;-75
2023/10/25 10:44:35;;;;;;;18.60;3.78;;;;;;;21.71;57.84;92523.88;5066480;28;20094;-74
2023/10/25 10:47:07;;;;;;;19.25;4.15;;;;;;;21.70;58.04;92523.09;5074148;28;20058;-75
2023/10/25 10:49:36;;;;;;;22.83;3.78;;;;;;;21.70;57.74;92514.47;5066985;28;20052;-75
2023/10/25 10:52:03;;;;;;;15.55;4.13;;;;;;;21.75;58.02;92512.50;5066798;28;20040;-75
2023/10/25 10:54:31;;;;;;;22.40;3.70;;;;;;;21.82;58.02;92521.78;5068427;28;20404;-75
2023/10/25 10:56:58;;;;;;;23.90;4.22;;;;;;;21.83;58.13;92515.47;5080154;28;20056;-74
2023/10/25 10:59:28;;;;;;;23.38;4.80;;;;;;;21.80;58.00;92508.25;5085786;28;20040;-75
2023/10/25 11:01:55;;;;;;;31.85;5.82;;;;;;;21.76;58.00;92500.22;5062186;28;20047;-75
2023/10/25 11:04:23;;;;;;;21.70;5.13;;;;;;;21.68;58.25;92501.69;5064756;28;20631;-75
2023/10/25 11:06:50;;;;;;;27.40;4.70;;;;;;;21.73;58.09;92506.03;5067059;28;20445;-75
2023/10/25 11:09:17;;;;;;;23.85;5.10;;;;;;;21.67;57.96;92510.59;5069255;28;20041;-75
2023/10/25 11:11:44;;;;;;;26.27;5.70;;;;;;;21.67;58.18;92500.13;5063124;28;20154;-74
2023/10/25 11:14:11;;;;;;;17.67;4.40;;;;;;;21.69;58.70;92499.81;5066290;28;20080;-75
2023/10/25 11:16:37;;;;;;;21.00;5.93;;;;;;;21.71;58.80;92503.72;5068500;28;20052;-74
2023/10/25 11:19:10;;;;;;;24.73;4.88;;;;;;;21.75;58.37;92503.88;5076705;28;20048;-74
2023/10/25 11:21:38;;;;;;;16.45;3.83;;;;;;;21.72;58.29;92502.63;5089198;28;20118;-75
2023/10/25 11:24:07;;;;;;;30.38;5.80;;;;;;;21.75;58.47;92496.03;5084938;28;20182;-75
2023/10/25 11:26:40;;;;;;;22.83;4.80;;;;;;;21.70;58.71;92486.50;5071999;28;20127;-75
2023/10/25 11:29:08;;;;;;;19.90;4.20;;;;;;;21.65;58.34;92478.72;5088309;28;20052;-75